EGDR

RNAS Culdrose Airport

Helston, United Kingdom
METAR EGDR 242350Z 28010KT 9999 FEW012 09/07 Q1014 BLU
Observed Flight Rules
Apr-24 @ 23:50 UTC (59 minutes ago) Visual Flight Rules
Wind Visibility Clouds
280° at 10 knots 10,000+ meters
  • Few at 1,200' AGL
Temperatures Readings
Current 9°C / 48°F
Dewpoint 7°C / 45°F
Humidity 87%
Altimeter 29.94" Hg
Pressure 1014 hPa
Elevation 82
METAR EGDR 242350Z 28010KT 9999 FEW012 09/07 Q1014 BLU
Observed Flight Rules
Apr-24 @ 23:50 UTC
(59 minutes ago)
VFR
Wind Visibility
280° at 10 knots 10,000+ meters
Clouds
  • Few at 1,200' AGL
Temperature Dewpoint
9°C / 48°F 7°C / 45°F
Humidity Altimeter Pressure
87% 29.94" Hg 1014 hPa